Time;durP1;ratioP1;P1;durP2;ratioP2;P2;SDS_P1;SDS_P2;PMS_P1;PMS_P2;Temp;Humidity;BMP_temperature;BMP_pressure;BME280_temperature;BME280_humidity;BME280_pressure;Samples;Min_cycle;Max_cycle;Signal;HPM_P1;HPM_P2
2022/03/04 00:02:19;;;;;;;;;;;;;;;;;;4915193;29;19947;-75
2022/03/04 00:04:44;;;;;;;;;;;;;;;;;;4916355;29;20014;-75
2022/03/04 00:07:11;;;;;;;;;;;;;;;;;;4915333;29;19915;-75
2022/03/04 00:09:36;;;;;;;;;;;;;;;;;;4916532;29;19930;-75
2022/03/04 00:12:03;;;;;;;;;;;;;;;;;;4916328;29;19919;-75
2022/03/04 00:14:29;;;;;;;;;;;;;;;;;;4916387;29;19986;-73
2022/03/04 00:16:54;;;;;;;;;;;;;;;;;;4916083;29;20014;-74
2022/03/04 00:19:20;;;;;;;;;;;;;;;;;;4914456;29;20332;-74
2022/03/04 00:21:48;;;;;;;;;;;;;;;;;;4916167;29;19926;-75
2022/03/04 00:24:14;;;;;;;;;;;;;;;;;;4917511;29;20351;-74
2022/03/04 00:26:40;;;;;;;;;;;;;;;;;;4933528;29;19926;-75
2022/03/04 00:29:06;;;;;;;;;;;;;;;;;;4933116;29;20014;-75
2022/03/04 00:31:32;;;;;;;;;;;;;;;;;;4935049;29;19915;-75
2022/03/04 00:33:57;;;;;;;;;;;;;;;;;;4933285;29;20326;-75
2022/03/04 00:36:23;;;;;;;;;;;;;;;;;;4934577;29;19922;-75
2022/03/04 00:38:53;;;;;;;;;;;;;;;;;;4933653;29;19934;-75
2022/03/04 00:41:18;;;;;;;;;;;;;;;;;;4934389;29;19954;-73
2022/03/04 00:43:44;;;;;;;;;;;;;;;;;;4934112;29;19953;-74
2022/03/04 00:46:10;;;;;;;;;;;;;;;;;;4932994;29;19918;-75
2022/03/04 00:48:36;;;;;;;;;;;;;;;;;;4934595;29;19918;-73
2022/03/04 00:51:02;;;;;;;;;;;;;;;;;;4933028;29;20229;-74
2022/03/04 00:53:28;;;;;;;;;;;;;;;;;;4934097;29;19914;-73
2022/03/04 00:55:53;;;;;;;;;;;;;;;;;;4934499;29;20030;-74
2022/03/04 00:58:18;;;;;;;;;;;;;;;;;;4933865;29;19919;-75
2022/03/04 01:00:44;;;;;;;;;;;;;;;;;;4933003;29;20290;-75
2022/03/04 01:03:09;;;;;;;;;;;;;;;;;;4933811;29;19971;-75
2022/03/04 01:05:34;;;;;;;;;;;;;;;;;;4933006;29;19937;-74
2022/03/04 01:08:00;;;;;;;;;;;;;;;;;;4934083;29;19922;-75
2022/03/04 01:10:25;;;;;;;;;;;;;;;;;;4934295;29;19923;-76
2022/03/04 01:12:51;;;;;;;;;;;;;;;;;;4934132;29;19918;-75
2022/03/04 01:15:17;;;;;;;;;;;;;;;;;;4932367;29;20136;-75
2022/03/04 01:17:42;;;;;;;;;;;;;;;;;;4933956;29;19919;-75
2022/03/04 01:20:08;;;;;;;;;;;;;;;;;;4932330;29;20363;-74
2022/03/04 01:22:33;;;;;;;;;;;;;;;;;;4932391;29;20395;-73
2022/03/04 01:24:58;;;;;;;;;;;;;;;;;;4922310;29;19919;-75
2022/03/04 01:27:24;;;;;;;;;;;;;;;;;;4914734;29;19919;-75
2022/03/04 01:29:49;;;;;;;;;;;;;;;;;;4913199;29;19915;-74
2022/03/04 01:32:15;;;;;;;;;;;;;;;;;;4914362;29;20006;-73
2022/03/04 01:34:40;;;;;;;;;;;;;;;;;;4913119;29;19971;-74
2022/03/04 01:37:07;;;;;;;;;;;;;;;;;;4913468;29;20302;-75
2022/03/04 01:39:32;;;;;;;;;;;;;;;;;;4914837;29;19998;-75
2022/03/04 01:41:57;;;;;;;;;;;;;;;;;;4913785;29;19998;-74
2022/03/04 01:44:23;;;;;;;;;;;;;;;;;;4914492;29;20295;-74
2022/03/04 01:46:48;;;;;;;;;;;;;;;;;;4914526;29;20009;-75
2022/03/04 01:49:14;;;;;;;;;;;;;;;;;;4912956;29;19946;-75
2022/03/04 01:51:39;;;;;;;;;;;;;;;;;;4913482;29;19915;-75
2022/03/04 01:54:05;;;;;;;;;;;;;;;;;;4913806;29;19915;-75
2022/03/04 01:56:30;;;;;;;;;;;;;;;;;;4913029;29;19923;-73
2022/03/04 01:58:56;;;;;;;;;;;;;;;;;;4912011;29;19946;-74
2022/03/04 02:01:21;;;;;;;;;;;;;;;;;;4912553;29;19926;-75
2022/03/04 02:03:47;;;;;;;;;;;;;;;;;;4912732;29;19915;-74
2022/03/04 02:06:12;;;;;;;;;;;;;;;;;;4922871;29;20005;-75
2022/03/04 02:08:39;;;;;;;;;;;;;;;;;;4918698;29;19923;-73
2022/03/04 02:11:05;;;;;;;;;;;;;;;;;;4918579;29;19941;-75
2022/03/04 02:13:31;;;;;;;;;;;;;;;;;;4924218;29;20379;-75
2022/03/04 02:15:56;;;;;;;;;;;;;;;;;;4920785;29;19919;-74
2022/03/04 02:18:22;;;;;;;;;;;;;;;;;;4922851;29;19934;-75
2022/03/04 02:20:48;;;;;;;;;;;;;;;;;;4931653;29;19919;-74
2022/03/04 02:23:14;;;;;;;;;;;;;;;;;;4921839;29;20006;-75
2022/03/04 02:25:40;;;;;;;;;;;;;;;;;;4918196;29;19929;-76
2022/03/04 02:28:06;;;;;;;;;;;;;;;;;;4922033;29;20098;-74
2022/03/04 02:30:32;;;;;;;;;;;;;;;;;;4929427;29;20429;-74
2022/03/04 02:32:57;;;;;;;;;;;;;;;;;;4924709;29;20322;-75
2022/03/04 02:35:23;;;;;;;;;;;;;;;;;;4921906;29;19975;-76
2022/03/04 02:37:48;;;;;;;;;;;;;;;;;;4926236;29;19923;-75
2022/03/04 02:40:14;;;;;;;;;;;;;;;;;;4921505;29;20121;-74
2022/03/04 02:42:39;;;;;;;;;;;;;;;;;;4919543;29;20363;-75
2022/03/04 02:45:05;;;;;;;;;;;;;;;;;;4921240;29;19926;-73
2022/03/04 02:47:30;;;;;;;;;;;;;;;;;;4930206;29;19923;-74
2022/03/04 02:49:56;;;;;;;;;;;;;;;;;;4919844;29;20290;-74
2022/03/04 02:52:21;;;;;;;;;;;;;;;;;;4921788;29;19929;-74
2022/03/04 02:54:46;;;;;;;;;;;;;;;;;;4918108;29;20014;-74
2022/03/04 02:57:12;;;;;;;;;;;;;;;;;;4918265;29;19931;-73
2022/03/04 02:59:37;;;;;;;;;;;;;;;;;;4925992;29;19966;-74
2022/03/04 03:02:02;;;;;;;;;;;;;;;;;;4918200;29;19919;-75
2022/03/04 03:04:28;;;;;;;;;;;;;;;;;;4921735;29;19975;-74
2022/03/04 03:06:53;;;;;;;;;;;;;;;;;;4922045;29;19929;-74
2022/03/04 03:09:20;;;;;;;;;;;;;;;;;;4921142;29;20422;-73
2022/03/04 03:11:45;;;;;;;;;;;;;;;;;;4943949;29;19957;-72
2022/03/04 03:14:10;;;;;;;;;;;;;;;;;;4924503;29;19958;-74
2022/03/04 03:16:36;;;;;;;;;;;;;;;;;;4926710;29;19927;-74
2022/03/04 03:19:02;;;;;;;;;;;;;;;;;;4922914;29;19950;-74
2022/03/04 03:21:28;;;;;;;;;;;;;;;;;;4928096;29;19923;-74
2022/03/04 03:23:53;;;;;;;;;;;;;;;;;;4928185;29;19969;-75
2022/03/04 03:26:18;;;;;;;;;;;;;;;;;;4923746;29;19962;-74
2022/03/04 03:28:44;;;;;;;;;;;;;;;;;;4927106;29;20005;-75
2022/03/04 03:31:09;;;;;;;;;;;;;;;;;;4921873;29;20322;-74
2022/03/04 03:33:37;;;;;;;;;;;;;;;;;;4928613;29;20314;-75
2022/03/04 03:36:02;;;;;;;;;;;;;;;;;;4922936;29;19919;-73
2022/03/04 03:38:28;;;;;;;;;;;;;;;;;;4921612;29;19987;-75
2022/03/04 03:40:53;;;;;;;;;;;;;;;;;;4928110;29;19929;-75
2022/03/04 03:43:19;;;;;;;;;;;;;;;;;;4922593;29;20009;-74
2022/03/04 03:45:44;;;;;;;;;;;;;;;;;;4929127;29;19997;-74
2022/03/04 03:48:10;;;;;;;;;;;;;;;;;;4922789;29;19946;-76
2022/03/04 03:50:38;;;;;;;;;;;;;;;;;;4926837;29;20533;-75
2022/03/04 03:53:04;;;;;;;;;;;;;;;;;;4927682;29;19922;-74
2022/03/04 03:55:30;;;;;;;;;;;;;;;;;;4928484;29;19934;-76
2022/03/04 03:57:56;;;;;;;;;;;;;;;;;;4921291;29;20375;-74
2022/03/04 04:00:21;;;;;;;;;;;;;;;;;;4928168;29;19919;-75
2022/03/04 04:02:46;;;;;;;;;;;;;;;;;;4927014;29;20282;-75
2022/03/04 04:05:12;;;;;;;;;;;;;;;;;;4921590;29;20291;-75
2022/03/04 04:07:37;;;;;;;;;;;;;;;;;;4928142;29;19950;-75
2022/03/04 04:10:03;;;;;;;;;;;;;;;;;;4922986;29;19920;-75
2022/03/04 04:12:29;;;;;;;;;;;;;;;;;;4927714;29;19918;-75
2022/03/04 04:14:54;;;;;;;;;;;;;;;;;;4928343;29;20348;-75
2022/03/04 04:17:19;;;;;;;;;;;;;;;;;;4927950;29;19927;-75
2022/03/04 04:19:45;;;;;;;;;;;;;;;;;;4926714;29;19930;-74
2022/03/04 04:22:10;;;;;;;;;;;;;;;;;;4928122;29;20009;-75
2022/03/04 04:24:35;;;;;;;;;;;;;;;;;;4926522;29;20396;-74
2022/03/04 04:27:01;;;;;;;;;;;;;;;;;;4923450;29;19930;-74
2022/03/04 04:29:27;;;;;;;;;;;;;;;;;;4914517;29;19958;-75
2022/03/04 04:31:52;;;;;;;;;;;;;;;;;;4928394;29;20244;-74
2022/03/04 04:34:17;;;;;;;;;;;;;;;;;;4928322;29;19923;-76
2022/03/04 04:36:43;;;;;;;;;;;;;;;;;;4933354;29;19945;-76
2022/03/04 04:39:08;;;;;;;;;;;;;;;;;;4923908;29;20355;-75
2022/03/04 04:41:34;;;;;;;;;;;;;;;;;;4919812;29;19915;-75
2022/03/04 04:44:00;;;;;;;;;;;;;;;;;;4926258;29;20013;-74
2022/03/04 04:46:25;;;;;;;;;;;;;;;;;;4928033;29;20001;-75
2022/03/04 04:48:51;;;;;;;;;;;;;;;;;;4922069;29;20359;-75
2022/03/04 04:51:16;;;;;;;;;;;;;;;;;;4925293;29;20313;-74
2022/03/04 04:53:44;;;;;;;;;;;;;;;;;;4927602;29;20327;-74
2022/03/04 04:56:09;;;;;;;;;;;;;;;;;;4919885;29;20375;-74
2022/03/04 04:58:34;;;;;;;;;;;;;;;;;;4921920;29;19919;-74
2022/03/04 05:01:00;;;;;;;;;;;;;;;;;;4919930;29;19938;-74
2022/03/04 05:03:26;;;;;;;;;;;;;;;;;;4924772;29;19922;-74
2022/03/04 05:05:53;;;;;;;;;;;;;;;;;;4923676;29;20260;-75
2022/03/04 05:08:18;;;;;;;;;;;;;;;;;;4923414;29;19923;-75
2022/03/04 05:10:44;;;;;;;;;;;;;;;;;;4923868;29;20434;-74
2022/03/04 05:13:11;;;;;;;;;;;;;;;;;;4926101;29;19930;-74
2022/03/04 05:15:38;;;;;;;;;;;;;;;;;;4925296;29;19946;-75
2022/03/04 05:18:03;;;;;;;;;;;;;;;;;;4930992;29;19919;-74
2022/03/04 05:20:29;;;;;;;;;;;;;;;;;;4925828;29;19915;-75
2022/03/04 05:22:54;;;;;;;;;;;;;;;;;;4922887;29;20026;-74
2022/03/04 05:25:20;;;;;;;;;;;;;;;;;;4926642;29;19922;-76
2022/03/04 05:27:46;;;;;;;;;;;;;;;;;;4927173;29;19923;-75
2022/03/04 05:30:12;;;;;;;;;;;;;;;;;;4924199;29;20157;-75
2022/03/04 05:32:38;;;;;;;;;;;;;;;;;;4922870;29;19923;-75
2022/03/04 05:35:05;;;;;;;;;;;;;;;;;;4924009;29;20406;-75
2022/03/04 05:37:30;;;;;;;;;;;;;;;;;;4922800;29;19919;-76
2022/03/04 05:39:55;;;;;;;;;;;;;;;;;;4924435;29;19927;-74
2022/03/04 05:42:21;;;;;;;;;;;;;;;;;;4929348;29;19919;-75
2022/03/04 05:44:46;;;;;;;;;;;;;;;;;;4922760;29;19933;-74
2022/03/04 05:47:11;;;;;;;;;;;;;;;;;;4925760;29;20023;-74
2022/03/04 05:49:37;;;;;;;;;;;;;;;;;;4921971;29;19923;-75
2022/03/04 05:52:03;;;;;;;;;;;;;;;;;;4914127;29;19954;-75
2022/03/04 05:54:29;;;;;;;;;;;;;;;;;;4918835;29;19929;-75
2022/03/04 05:56:54;;;;;;;;;;;;;;;;;;4922225;29;20316;-75
2022/03/04 05:59:19;;;;;;;;;;;;;;;;;;4918757;29;20620;-74
2022/03/04 06:01:45;;;;;;;;;;;;;;;;;;4923629;29;20382;-74
2022/03/04 06:04:10;;;;;;;;;;;;;;;;;;4925696;29;19926;-73
2022/03/04 06:06:36;;;;;;;;;;;;;;;;;;4925129;29;19949;-75
2022/03/04 06:09:01;;;;;;;;;;;;;;;;;;4920581;29;19954;-79
2022/03/04 06:11:26;;;;;;;;;;;;;;;;;;4921816;29;19957;-79
2022/03/04 06:13:52;;;;;;;;;;;;;;;;;;4938488;29;20370;-79
2022/03/04 06:16:17;;;;;;;;;;;;;;;;;;4934974;29;19918;-77
2022/03/04 06:18:42;;;;;;;;;;;;;;;;;;4936088;29;19926;-80
2022/03/04 06:21:08;;;;;;;;;;;;;;;;;;4919990;29;20398;-79
2022/03/04 06:23:33;;;;;;;;;;;;;;;;;;4920254;29;20050;-79
2022/03/04 06:25:59;;;;;;;;;;;;;;;;;;4930563;29;19926;-80
2022/03/04 06:28:25;;;;;;;;;;;;;;;;;;4918666;29;19971;-78
2022/03/04 06:30:50;;;;;;;;;;;;;;;;;;4923853;29;19981;-79
2022/03/04 06:33:32;;;;;;;;;;;;;;;;;;4922961;29;19958;-77
2022/03/04 06:36:03;;;;;;;;;;;;;;;;;;4924649;29;19931;-78
2022/03/04 06:38:29;;;;;;;;;;;;;;;;;;4929661;29;19953;-76
2022/03/04 06:40:54;;;;;;;;;;;;;;;;;;4928725;29;20591;-75
2022/03/04 06:43:19;;;;;;;;;;;;;;;;;;4921273;29;20580;-76
2022/03/04 06:45:46;;;;;;;;;;;;;;;;;;4923671;29;20599;-76
2022/03/04 06:48:12;;;;;;;;;;;;;;;;;;4922553;29;19923;-76
2022/03/04 06:50:37;;;;;;;;;;;;;;;;;;4930170;29;19990;-77
2022/03/04 06:53:03;;;;;;;;;;;;;;;;;;4922863;29;19970;-77
2022/03/04 06:55:29;;;;;;;;;;;;;;;;;;4905380;29;19934;-75
2022/03/04 06:57:55;;;;;;;;;;;;;;;;;;4923922;29;19923;-76
2022/03/04 07:00:21;;;;;;;;;;;;;;;;;;4928235;29;19927;-77
2022/03/04 07:02:47;;;;;;;;;;;;;;;;;;4926217;29;19929;-77
2022/03/04 07:05:21;;;;;;;;;;;;;;;;;;4923059;29;19969;-77
2022/03/04 07:07:50;;;;;;;;;;;;;;;;;;4923370;29;19923;-77
2022/03/04 07:10:16;;;;;;;;;;;;;;;;;;4922542;29;19926;-76
2022/03/04 07:12:50;;;;;;;;;;;;;;;;;;4925592;29;20030;-77
2022/03/04 07:15:19;;;;;;;;;;;;;;;;;;4934763;29;20063;-76
2022/03/04 07:17:46;;;;;;;;;;;;;;;;;;4923186;29;20030;-76
2022/03/04 07:20:14;;;;;;;;;;;;;;;;;;4931042;29;20366;-76
2022/03/04 07:22:45;;;;;;;;;;;;;;;;;;4926119;28;20390;-77
2022/03/04 07:25:12;;;;;;;;;;;;;;;;;;4937003;29;19926;-77
2022/03/04 07:27:39;;;;;;;;;;;;;;;;;;4925051;29;20947;-74
2022/03/04 07:30:06;;;;;;;;;;;;;;;;;;4928322;28;19922;-76
2022/03/04 07:32:34;;;;;;;;;;;;;;;;;;4928788;29;19975;-76
2022/03/04 07:35:00;;;;;;;;;;;;;;;;;;4931079;29;19930;-75
2022/03/04 07:37:26;;;;;;;;;;;;;;;;;;4928923;29;19961;-73
2022/03/04 07:39:52;;;;;;;;;;;;;;;;;;4923302;29;19997;-75
2022/03/04 07:42:18;;;;;;;;;;;;;;;;;;4920004;29;20243;-76
2022/03/04 07:44:44;;;;;;;;;;;;;;;;;;4916319;29;19934;-75
2022/03/04 07:47:10;;;;;;;;;;;;;;;;;;4925343;29;20013;-76
2022/03/04 07:49:36;;;;;;;;;;;;;;;;;;4943338;28;20399;-79
2022/03/04 07:52:02;;;;;;;;;;;;;;;;;;4922623;29;19934;-77
2022/03/04 07:54:28;;;;;;;;;;;;;;;;;;4920970;29;19926;-77
2022/03/04 07:56:55;;;;;;;;;;;;;;;;;;4926724;29;19927;-77
2022/03/04 07:59:21;;;;;;;;;;;;;;;;;;4943289;28;19941;-78
2022/03/04 08:01:48;;;;;;;;;;;;;;;;;;4934566;29;19923;-78
2022/03/04 08:04:13;;;;;;;;;;;;;;;;;;4925339;29;20339;-79
2022/03/04 08:06:42;;;;;;;;;;;;;;;;;;4923775;29;19977;-77
2022/03/04 08:09:07;;;;;;;;;;;;;;;;;;4933974;29;19926;-78
2022/03/04 08:11:34;;;;;;;;;;;;;;;;;;4930546;29;19933;-79
2022/03/04 08:14:00;;;;;;;;;;;;;;;;;;4927574;28;19966;-76
2022/03/04 08:16:29;;;;;;;;;;;;;;;;;;4929698;29;20071;-76
2022/03/04 08:18:57;;;;;;;;;;;;;;;;;;4929177;29;19976;-76
2022/03/04 08:21:25;;;;;;;;;;;;;;;;;;4934023;29;19927;-76
2022/03/04 08:23:51;;;;;;;;;;;;;;;;;;4930082;28;19926;-76
2022/03/04 08:26:20;;;;;;;;;;;;;;;;;;4933069;29;19931;-76
2022/03/04 08:28:47;;;;;;;;;;;;;;;;;;4934432;29;19922;-79
2022/03/04 08:31:13;;;;;;;;;;;;;;;;;;4927613;29;19977;-79
2022/03/04 08:33:40;;;;;;;;;;;;;;;;;;4921817;29;19975;-75
2022/03/04 08:36:08;;;;;;;;;;;;;;;;;;4928818;29;19927;-77
2022/03/04 08:38:34;;;;;;;;;;;;;;;;;;4930403;29;19922;-79
2022/03/04 08:41:00;;;;;;;;;;;;;;;;;;4935720;28;19927;-79
2022/03/04 08:43:28;;;;;;;;;;;;;;;;;;4932484;29;19949;-77
2022/03/04 08:45:56;;;;;;;;;;;;;;;;;;4935879;29;19938;-76
2022/03/04 08:48:24;;;;;;;;;;;;;;;;;;4936052;29;20037;-78
2022/03/04 08:51:07;;;;;;;;;;;;;;;;;;4933275;28;19927;-77
2022/03/04 08:53:33;;;;;;;;;;;;;;;;;;4924046;29;19980;-78
2022/03/04 08:55:59;;;;;;;;;;;;;;;;;;4928999;29;19934;-77
2022/03/04 08:58:25;;;;;;;;;;;;;;;;;;4933023;29;21002;-77
2022/03/04 09:00:53;;;;;;;;;;;;;;;;;;4929870;29;19934;-77
2022/03/04 09:03:22;;;;;;;;;;;;;;;;;;4924963;29;20176;-78
2022/03/04 09:05:48;;;;;;;;;;;;;;;;;;4923288;29;19927;-77
2022/03/04 09:08:14;;;;;;;;;;;;;;;;;;4924889;28;19922;-77
2022/03/04 09:10:39;;;;;;;;;;;;;;;;;;4929770;29;19926;-77
2022/03/04 09:13:05;;;;;;;;;;;;;;;;;;4943211;28;20346;-77
2022/03/04 09:15:32;;;;;;;;;;;;;;;;;;4923942;29;20360;-77
2022/03/04 09:17:58;;;;;;;;;;;;;;;;;;4930888;28;20362;-78
2022/03/04 09:20:23;;;;;;;;;;;;;;;;;;4925970;29;20017;-76
2022/03/04 09:22:49;;;;;;;;;;;;;;;;;;4932037;29;19929;-80
2022/03/04 09:25:15;;;;;;;;;;;;;;;;;;4927323;29;19965;-78
2022/03/04 09:27:42;;;;;;;;;;;;;;;;;;4921285;29;19986;-76
2022/03/04 09:30:13;;;;;;;;;;;;;;;;;;4924934;29;19922;-77
2022/03/04 09:32:45;;;;;;;;;;;;;;;;;;4921165;29;19922;-76
2022/03/04 09:35:10;;;;;;;;;;;;;;;;;;4933095;29;19937;-78
2022/03/04 09:37:38;;;;;;;;;;;;;;;;;;4926508;29;20286;-75
2022/03/04 09:40:06;;;;;;;;;;;;;;;;;;4938515;28;19930;-77
2022/03/04 09:42:39;;;;;;;;;;;;;;;;;;4923897;29;19934;-79
2022/03/04 09:45:05;;;;;;;;;;;;;;;;;;4917177;29;19972;-77
2022/03/04 09:47:31;;;;;;;;;;;;;;;;;;4927352;28;19927;-78
2022/03/04 09:49:58;;;;;;;;;;;;;;;;;;4940284;28;20841;-75
2022/03/04 09:52:24;;;;;;;;;;;;;;;;;;4925819;29;19969;-77
2022/03/04 09:54:57;;;;;;;;;;;;;;;;;;4925536;29;20597;-78
2022/03/04 09:57:23;;;;;;;;;;;;;;;;;;4928110;29;20016;-78
2022/03/04 09:59:51;;;;;;;;;;;;;;;;;;4918596;29;20738;-76
2022/03/04 10:02:17;;;;;;;;;;;;;;;;;;4922210;29;19974;-78
2022/03/04 10:04:48;;;;;;;;;;;;;;;;;;4919326;28;20017;-77
2022/03/04 10:07:15;;;;;;;;;;;;;;;;;;4920900;29;20020;-77
2022/03/04 10:09:42;;;;;;;;;;;;;;;;;;4923777;28;19923;-76
2022/03/04 10:12:08;;;;;;;;;;;;;;;;;;4929035;29;20021;-77
2022/03/04 10:14:34;;;;;;;;;;;;;;;;;;4920039;29;19994;-76
2022/03/04 10:17:00;;;;;;;;;;;;;;;;;;4936343;28;19930;-77
2022/03/04 10:19:27;;;;;;;;;;;;;;;;;;4932813;28;20344;-77
2022/03/04 10:21:55;;;;;;;;;;;;;;;;;;4913027;29;19949;-76
2022/03/04 10:24:31;;;;;;;;;;;;;;;;;;4915644;28;19926;-77
2022/03/04 10:27:02;;;;;;;;;;;;;;;;;;4928831;29;20033;-78
2022/03/04 10:29:30;;;;;;;;;;;;;;;;;;4928982;28;19985;-78
2022/03/04 10:32:18;;;;;;;;;;;;;;;;;;4925440;29;20049;-78
2022/03/04 10:34:53;;;;;;;;;;;;;;;;;;4916367;29;19943;-79
2022/03/04 10:37:20;;;;;;;;;;;;;;;;;;4926709;28;19937;-78
2022/03/04 10:40:15;;;;;;;;;;;;;;;;;;4926240;29;19919;-76
2022/03/04 10:42:47;;;;;;;;;;;;;;;;;;4927555;29;20425;-77
2022/03/04 10:45:14;;;;;;;;;;;;;;;;;;4932889;29;19922;-79
2022/03/04 10:47:53;;;;;;;;;;;;;;;;;;4931198;29;19935;-78
2022/03/04 10:50:25;;;;;;;;;;;;;;;;;;4930281;29;19984;-78
2022/03/04 10:52:54;;;;;;;;;;;;;;;;;;4907336;29;19934;-78
2022/03/04 10:55:31;;;;;;;;;;;;;;;;;;4941460;28;19957;-78
2022/03/04 10:57:57;;;;;;;;;;;;;;;;;;4925718;29;20367;-79
2022/03/04 11:00:24;;;;;;;;;;;;;;;;;;4927873;29;19962;-78
2022/03/04 11:02:50;;;;;;;;;;;;;;;;;;4906336;29;19979;-78
2022/03/04 11:05:16;;;;;;;;;;;;;;;;;;4921436;29;19923;-75
2022/03/04 11:07:44;;;;;;;;;;;;;;;;;;4932608;29;19977;-78
2022/03/04 11:10:10;;;;;;;;;;;;;;;;;;4925355;29;19923;-76
2022/03/04 11:12:36;;;;;;;;;;;;;;;;;;4922653;29;19922;-78
2022/03/04 11:15:02;;;;;;;;;;;;;;;;;;4923409;29;19977;-75
2022/03/04 11:17:29;;;;;;;;;;;;;;;;;;4924520;29;19934;-76
2022/03/04 11:19:56;;;;;;;;;;;;;;;;;;4922099;29;19969;-77
2022/03/04 11:22:22;;;;;;;;;;;;;;;;;;4923531;29;20082;-78
2022/03/04 11:24:49;;;;;;;;;;;;;;;;;;4918917;28;20376;-78
2022/03/04 11:27:16;;;;;;;;;;;;;;;;;;4918332;29;20442;-75
2022/03/04 11:29:46;;;;;;;;;;;;;;;;;;4925258;29;20290;-77
2022/03/04 11:32:12;;;;;;;;;;;;;;;;;;4948773;28;19978;-77
2022/03/04 11:34:44;;;;;;;;;;;;;;;;;;4923563;29;20320;-78
2022/03/04 11:37:30;;;;;;;;;;;;;;;;;;4930985;28;20408;-77
2022/03/04 11:40:06;;;;;;;;;;;;;;;;;;4934148;29;20224;-77
2022/03/04 11:42:41;;;;;;;;;;;;;;;;;;4934785;29;19934;-77
2022/03/04 11:45:11;;;;;;;;;;;;;;;;;;4936560;29;19994;-77
2022/03/04 11:47:47;;;;;;;;;;;;;;;;;;4932996;29;19955;-74
2022/03/04 11:50:32;;;;;;;;;;;;;;;;;;4946162;28;20017;-76
2022/03/04 11:53:31;;;;;;;;;;;;;;;;;;4948770;28;19998;-76
2022/03/04 11:56:14;;;;;;;;;;;;;;;;;;4926520;28;19994;-79
2022/03/04 11:58:59;;;;;;;;;;;;;;;;;;4952421;28;19926;-78
2022/03/04 12:01:34;;;;;;;;;;;;;;;;;;4939679;29;19926;-77
2022/03/04 12:04:09;;;;;;;;;;;;;;;;;;4926384;28;20144;-77
2022/03/04 12:06:35;;;;;;;;;;;;;;;;;;4946170;28;19927;-77
2022/03/04 12:09:25;;;;;;;;;;;;;;;;;;4932592;29;20275;-76
2022/03/04 12:12:12;;;;;;;;;;;;;;;;;;4932142;28;20265;-79
2022/03/04 12:14:42;;;;;;;;;;;;;;;;;;4937470;28;19931;-78
2022/03/04 12:17:10;;;;;;;;;;;;;;;;;;4939284;29;19981;-79
2022/03/04 12:19:36;;;;;;;;;;;;;;;;;;4930737;29;19930;-76
2022/03/04 12:22:03;;;;;;;;;;;;;;;;;;4926647;29;20066;-77
2022/03/04 12:24:34;;;;;;;;;;;;;;;;;;4927653;28;19927;-76
2022/03/04 12:27:01;;;;;;;;;;;;;;;;;;4917665;29;19974;-75
2022/03/04 12:29:43;;;;;;;;;;;;;;;;;;4940605;28;20392;-78
2022/03/04 12:32:09;;;;;;;;;;;;;;;;;;4927905;28;19974;-77
2022/03/04 12:34:38;;;;;;;;;;;;;;;;;;4925213;28;20286;-77
2022/03/04 12:37:08;;;;;;;;;;;;;;;;;;4924298;29;19927;-79
2022/03/04 12:39:37;;;;;;;;;;;;;;;;;;4928536;29;19927;-78
2022/03/04 12:42:06;;;;;;;;;;;;;;;;;;4928964;28;20676;-76
2022/03/04 12:44:32;;;;;;;;;;;;;;;;;;4920870;29;19927;-77
2022/03/04 12:46:58;;;;;;;;;;;;;;;;;;4932996;29;19927;-78
2022/03/04 12:49:30;;;;;;;;;;;;;;;;;;4926303;28;19925;-76
2022/03/04 12:51:57;;;;;;;;;;;;;;;;;;4932576;29;19926;-78
2022/03/04 12:54:30;;;;;;;;;;;;;;;;;;4925585;29;19927;-76
2022/03/04 12:56:57;;;;;;;;;;;;;;;;;;4929483;29;19926;-78
2022/03/04 12:59:26;;;;;;;;;;;;;;;;;;4945429;28;19930;-78
2022/03/04 13:01:53;;;;;;;;;;;;;;;;;;4928495;29;20014;-80
2022/03/04 13:04:20;;;;;;;;;;;;;;;;;;4926669;29;20445;-79
2022/03/04 13:06:46;;;;;;;;;;;;;;;;;;4933651;28;20496;-79
2022/03/04 13:09:12;;;;;;;;;;;;;;;;;;4928459;29;19930;-78
2022/03/04 13:11:39;;;;;;;;;;;;;;;;;;4927982;29;19933;-79
2022/03/04 13:14:06;;;;;;;;;;;;;;;;;;4934954;28;19938;-77
2022/03/04 13:16:45;;;;;;;;;;;;;;;;;;4932670;29;19942;-79
2022/03/04 13:19:17;;;;;;;;;;;;;;;;;;4937536;28;19918;-78
2022/03/04 13:22:09;;;;;;;;;;;;;;;;;;4930679;29;19922;-80
2022/03/04 13:24:39;;;;;;;;;;;;;;;;;;4924095;29;20303;-78
2022/03/04 13:27:09;;;;;;;;;;;;;;;;;;4931885;29;19970;-77
2022/03/04 13:29:43;;;;;;;;;;;;;;;;;;4932839;29;19958;-77
2022/03/04 13:32:16;;;;;;;;;;;;;;;;;;4932403;29;19930;-77
2022/03/04 13:34:52;;;;;;;;;;;;;;;;;;4935191;29;20029;-78
2022/03/04 13:37:19;;;;;;;;;;;;;;;;;;4941057;29;19962;-76
2022/03/04 13:40:04;;;;;;;;;;;;;;;;;;4940393;29;19922;-77
2022/03/04 13:42:52;;;;;;;;;;;;;;;;;;4932062;29;20006;-76
2022/03/04 13:45:32;;;;;;;;;;;;;;;;;;4942796;28;19926;-75
2022/03/04 13:48:02;;;;;;;;;;;;;;;;;;4941551;28;19927;-77
2022/03/04 13:50:41;;;;;;;;;;;;;;;;;;4927768;29;19929;-77
2022/03/04 13:53:08;;;;;;;;;;;;;;;;;;4925792;28;20017;-78
2022/03/04 13:55:49;;;;;;;;;;;;;;;;;;4925584;29;20131;-78
2022/03/04 13:58:17;;;;;;;;;;;;;;;;;;4922233;29;19973;-76
2022/03/04 14:00:53;;;;;;;;;;;;;;;;;;4926766;29;19926;-78
2022/03/04 14:03:23;;;;;;;;;;;;;;;;;;4931580;29;20025;-77
2022/03/04 14:05:56;;;;;;;;;;;;;;;;;;4924607;29;19927;-79
2022/03/04 14:08:23;;;;;;;;;;;;;;;;;;4919548;29;19987;-78
2022/03/04 14:10:49;;;;;;;;;;;;;;;;;;4924426;29;20399;-78
2022/03/04 14:13:17;;;;;;;;;;;;;;;;;;4917708;28;19946;-77
2022/03/04 14:15:44;;;;;;;;;;;;;;;;;;4920830;29;19934;-80
2022/03/04 14:18:11;;;;;;;;;;;;;;;;;;4921451;29;20248;-79
2022/03/04 14:20:37;;;;;;;;;;;;;;;;;;4931617;29;19931;-80
2022/03/04 14:23:07;;;;;;;;;;;;;;;;;;4929660;28;19922;-79
2022/03/04 14:25:33;;;;;;;;;;;;;;;;;;4923712;29;20085;-78
2022/03/04 14:28:00;;;;;;;;;;;;;;;;;;4919698;29;20025;-79
2022/03/04 14:30:27;;;;;;;;;;;;;;;;;;4921649;29;19925;-80
2022/03/04 14:32:54;;;;;;;;;;;;;;;;;;4919295;29;19923;-79
2022/03/04 14:35:22;;;;;;;;;;;;;;;;;;4923006;29;19927;-80
2022/03/04 14:37:48;;;;;;;;;;;;;;;;;;4920722;29;19933;-79
2022/03/04 14:40:18;;;;;;;;;;;;;;;;;;4923971;29;20333;-80
2022/03/04 14:42:44;;;;;;;;;;;;;;;;;;4916859;29;19958;-79
2022/03/04 14:45:10;;;;;;;;;;;;;;;;;;4927109;29;20025;-80
2022/03/04 14:47:39;;;;;;;;;;;;;;;;;;4920214;29;20062;-79
2022/03/04 14:50:05;;;;;;;;;;;;;;;;;;4931478;29;19926;-79
2022/03/04 14:52:32;;;;;;;;;;;;;;;;;;4919763;29;20282;-78
2022/03/04 14:55:00;;;;;;;;;;;;;;;;;;4925790;29;19922;-80
2022/03/04 14:57:26;;;;;;;;;;;;;;;;;;4918912;29;19923;-78
2022/03/04 14:59:58;;;;;;;;;;;;;;;;;;4920475;29;19923;-78
2022/03/04 15:02:27;;;;;;;;;;;;;;;;;;4923268;29;20013;-79
2022/03/04 15:04:53;;;;;;;;;;;;;;;;;;4927971;29;19989;-82
2022/03/04 15:07:24;;;;;;;;;;;;;;;;;;4919410;29;19931;-77
2022/03/04 15:09:50;;;;;;;;;;;;;;;;;;4927140;29;20039;-79
2022/03/04 15:12:19;;;;;;;;;;;;;;;;;;4931428;28;20451;-80
2022/03/04 15:14:44;;;;;;;;;;;;;;;;;;4928910;29;19930;-77
2022/03/04 15:17:10;;;;;;;;;;;;;;;;;;4925689;29;20298;-79
2022/03/04 15:19:41;;;;;;;;;;;;;;;;;;4926517;29;19945;-79
2022/03/04 15:22:08;;;;;;;;;;;;;;;;;;4921505;29;19923;-80
2022/03/04 15:24:34;;;;;;;;;;;;;;;;;;4927550;29;20019;-77
2022/03/04 15:27:03;;;;;;;;;;;;;;;;;;4934475;28;19927;-78
2022/03/04 15:29:28;;;;;;;;;;;;;;;;;;4927105;29;19981;-77
2022/03/04 15:31:58;;;;;;;;;;;;;;;;;;4926141;29;19927;-79
2022/03/04 15:34:24;;;;;;;;;;;;;;;;;;4924963;29;20005;-77
2022/03/04 15:36:50;;;;;;;;;;;;;;;;;;4923909;29;20010;-80
2022/03/04 15:39:17;;;;;;;;;;;;;;;;;;4931076;29;20350;-79
2022/03/04 15:41:49;;;;;;;;;;;;;;;;;;4924341;29;19926;-78
2022/03/04 15:44:18;;;;;;;;;;;;;;;;;;4925698;29;19929;-78
2022/03/04 15:46:44;;;;;;;;;;;;;;;;;;4920190;29;20216;-77
2022/03/04 15:49:11;;;;;;;;;;;;;;;;;;4924081;29;19935;-79
2022/03/04 15:51:37;;;;;;;;;;;;;;;;;;4929517;29;19969;-77
2022/03/04 15:54:03;;;;;;;;;;;;;;;;;;4934583;29;20409;-80
2022/03/04 15:56:28;;;;;;;;;;;;;;;;;;4921789;29;19935;-81
2022/03/04 15:58:54;;;;;;;;;;;;;;;;;;4924500;29;19923;-78
2022/03/04 16:01:19;;;;;;;;;;;;;;;;;;4926497;29;20290;-79
2022/03/04 16:03:46;;;;;;;;;;;;;;;;;;4921151;29;19963;-79
2022/03/04 16:06:12;;;;;;;;;;;;;;;;;;4925883;29;19925;-78
2022/03/04 16:08:38;;;;;;;;;;;;;;;;;;4920576;29;19978;-79
2022/03/04 16:11:03;;;;;;;;;;;;;;;;;;4923225;29;19919;-79
2022/03/04 16:13:28;;;;;;;;;;;;;;;;;;4918529;29;19978;-78
2022/03/04 16:15:54;;;;;;;;;;;;;;;;;;4928111;29;19926;-79
2022/03/04 16:18:19;;;;;;;;;;;;;;;;;;4918863;29;20021;-77
2022/03/04 16:20:45;;;;;;;;;;;;;;;;;;4924335;29;19926;-77
2022/03/04 16:23:12;;;;;;;;;;;;;;;;;;4925751;29;20359;-79
2022/03/04 16:25:40;;;;;;;;;;;;;;;;;;4930751;28;20225;-79
2022/03/04 16:28:05;;;;;;;;;;;;;;;;;;4929211;29;19978;-79
2022/03/04 16:30:31;;;;;;;;;;;;;;;;;;4938810;29;19927;-76
2022/03/04 16:32:58;;;;;;;;;;;;;;;;;;4916389;29;20010;-77
2022/03/04 16:35:25;;;;;;;;;;;;;;;;;;4927438;29;20456;-77
2022/03/04 16:37:51;;;;;;;;;;;;;;;;;;4919851;29;20366;-78
2022/03/04 16:40:17;;;;;;;;;;;;;;;;;;4924185;29;19927;-77
2022/03/04 16:42:43;;;;;;;;;;;;;;;;;;4921002;29;19919;-80
2022/03/04 16:45:09;;;;;;;;;;;;;;;;;;4929833;29;19934;-78
2022/03/04 16:47:34;;;;;;;;;;;;;;;;;;4927399;29;19919;-78
2022/03/04 16:50:00;;;;;;;;;;;;;;;;;;4922764;29;19923;-79